sensor_id;sensor_type;location;lat;lon;timestamp;pressure;altitude;pressure_sealevel;temperature;humidity
23281;BME280;11809;56.390;-3.266;2023-04-28T00:02:18;100581.94;;;15.55;52.99
23281;BME280;11809;56.390;-3.266;2023-04-28T00:04:45;100580.25;;;15.54;53.02
23281;BME280;11809;56.390;-3.266;2023-04-28T00:07:13;100574.19;;;15.52;53.07
23281;BME280;11809;56.390;-3.266;2023-04-28T00:09:40;100575.16;;;15.51;53.13
23281;BME280;11809;56.390;-3.266;2023-04-28T00:12:07;100567.28;;;15.49;53.02
23281;BME280;11809;56.390;-3.266;2023-04-28T00:14:34;100568.31;;;15.47;53.23
23281;BME280;11809;56.390;-3.266;2023-04-28T00:17:01;100566.63;;;15.46;53.19
23281;BME280;11809;56.390;-3.266;2023-04-28T00:19:29;100568.47;;;15.44;53.30
23281;BME280;11809;56.390;-3.266;2023-04-28T00:21:56;100573.97;;;15.41;53.33
23281;BME280;11809;56.390;-3.266;2023-04-28T00:24:22;100559.97;;;15.39;53.14
23281;BME280;11809;56.390;-3.266;2023-04-28T00:26:49;100566.13;;;15.39;53.10
23281;BME280;11809;56.390;-3.266;2023-04-28T00:29:17;100565.25;;;15.39;53.28
23281;BME280;11809;56.390;-3.266;2023-04-28T00:31:43;100562.59;;;15.39;53.25
23281;BME280;11809;56.390;-3.266;2023-04-28T00:34:11;100561.84;;;15.37;53.29
23281;BME280;11809;56.390;-3.266;2023-04-28T00:36:41;100561.84;;;15.37;53.48
23281;BME280;11809;56.390;-3.266;2023-04-28T00:39:08;100561.97;;;15.35;53.30
23281;BME280;11809;56.390;-3.266;2023-04-28T00:41:35;100554.94;;;15.34;53.33
23281;BME280;11809;56.390;-3.266;2023-04-28T00:44:02;100567.25;;;15.35;53.39
23281;BME280;11809;56.390;-3.266;2023-04-28T00:46:30;100568.19;;;15.34;53.52
23281;BME280;11809;56.390;-3.266;2023-04-28T00:48:59;100561.19;;;15.33;53.55
23281;BME280;11809;56.390;-3.266;2023-04-28T00:51:26;100568.31;;;15.33;53.62
23281;BME280;11809;56.390;-3.266;2023-04-28T00:53:56;100563.94;;;15.32;53.36
23281;BME280;11809;56.390;-3.266;2023-04-28T00:56:24;100563.94;;;15.32;53.36
23281;BME280;11809;56.390;-3.266;2023-04-28T00:58:53;100562.22;;;15.31;53.58
23281;BME280;11809;56.390;-3.266;2023-04-28T01:01:20;100556.94;;;15.31;53.50
23281;BME280;11809;56.390;-3.266;2023-04-28T01:03:47;100560.53;;;15.30;53.60
23281;BME280;11809;56.390;-3.266;2023-04-28T01:06:15;100557.09;;;15.28;53.65
23281;BME280;11809;56.390;-3.266;2023-04-28T01:08:47;100557.09;;;15.28;53.44
23281;BME280;11809;56.390;-3.266;2023-04-28T01:11:14;100553.72;;;15.26;53.60
23281;BME280;11809;56.390;-3.266;2023-04-28T01:13:41;100547.66;;;15.24;53.85
23281;BME280;11809;56.390;-3.266;2023-04-28T01:16:08;100542.38;;;15.24;53.56
23281;BME280;11809;56.390;-3.266;2023-04-28T01:18:35;100546.91;;;15.22;53.63
23281;BME280;11809;56.390;-3.266;2023-04-28T01:21:02;100546.91;;;15.22;53.70
23281;BME280;11809;56.390;-3.266;2023-04-28T01:23:30;100544.34;;;15.20;53.62
23281;BME280;11809;56.390;-3.266;2023-04-28T01:25:57;100541.81;;;15.18;53.47
23281;BME280;11809;56.390;-3.266;2023-04-28T01:28:24;100548.78;;;15.19;53.62
23281;BME280;11809;56.390;-3.266;2023-04-28T01:30:51;100548.78;;;15.19;53.71
23281;BME280;11809;56.390;-3.266;2023-04-28T01:33:18;100551.53;;;15.18;53.53
23281;BME280;11809;56.390;-3.266;2023-04-28T01:35:45;100550.69;;;15.17;53.71
23281;BME280;11809;56.390;-3.266;2023-04-28T01:38:12;100550.69;;;15.17;53.90
23281;BME280;11809;56.390;-3.266;2023-04-28T01:40:39;100550.69;;;15.17;53.91
23281;BME280;11809;56.390;-3.266;2023-04-28T01:43:06;100550.69;;;15.17;53.83
23281;BME280;11809;56.390;-3.266;2023-04-28T01:45:33;100546.34;;;15.16;53.76
23281;BME280;11809;56.390;-3.266;2023-04-28T01:48:00;100549.00;;;15.16;53.80
23281;BME280;11809;56.390;-3.266;2023-04-28T01:50:27;100549.94;;;15.15;53.95
23281;BME280;11809;56.390;-3.266;2023-04-28T01:52:54;100542.84;;;15.16;53.79
23281;BME280;11809;56.390;-3.266;2023-04-28T01:55:21;100545.56;;;15.14;53.76
23281;BME280;11809;56.390;-3.266;2023-04-28T01:57:48;100556.16;;;15.14;53.83
23281;BME280;11809;56.390;-3.266;2023-04-28T02:00:16;100557.97;;;15.14;54.05
23281;BME280;11809;56.390;-3.266;2023-04-28T02:02:43;100557.13;;;15.13;53.94
23281;BME280;11809;56.390;-3.266;2023-04-28T02:05:10;100551.81;;;15.13;54.12
23281;BME280;11809;56.390;-3.266;2023-04-28T02:07:37;100550.03;;;15.14;53.93
23281;BME280;11809;56.390;-3.266;2023-04-28T02:10:05;100547.38;;;15.14;54.14
23281;BME280;11809;56.390;-3.266;2023-04-28T02:12:32;100536.88;;;15.12;54.02
23281;BME280;11809;56.390;-3.266;2023-04-28T02:14:59;100543.03;;;15.13;54.08
23281;BME280;11809;56.390;-3.266;2023-04-28T02:17:29;100533.28;;;15.13;54.00
23281;BME280;11809;56.390;-3.266;2023-04-28T02:19:56;100533.38;;;15.12;53.91
23281;BME280;11809;56.390;-3.266;2023-04-28T02:22:23;100533.28;;;15.13;53.93
23281;BME280;11809;56.390;-3.266;2023-04-28T02:24:50;100539.44;;;15.14;53.94
23281;BME280;11809;56.390;-3.266;2023-04-28T02:27:17;100540.25;;;15.14;53.85
23281;BME280;11809;56.390;-3.266;2023-04-28T02:29:44;100538.59;;;15.13;53.98
23281;BME280;11809;56.390;-3.266;2023-04-28T02:32:11;100535.94;;;15.13;54.14
23281;BME280;11809;56.390;-3.266;2023-04-28T02:34:39;100527.03;;;15.14;54.17
23281;BME280;11809;56.390;-3.266;2023-04-28T02:37:06;100529.69;;;15.14;54.00
23281;BME280;11809;56.390;-3.266;2023-04-28T02:39:33;100539.44;;;15.14;54.00
23281;BME280;11809;56.390;-3.266;2023-04-28T02:42:00;100532.44;;;15.13;54.05
23281;BME280;11809;56.390;-3.266;2023-04-28T02:44:27;100543.88;;;15.13;54.00
23281;BME280;11809;56.390;-3.266;2023-04-28T02:46:54;100535.09;;;15.13;54.24
23281;BME280;11809;56.390;-3.266;2023-04-28T02:49:21;100548.22;;;15.14;54.09
23281;BME280;11809;56.390;-3.266;2023-04-28T02:51:48;100546.34;;;15.16;54.04
23281;BME280;11809;56.390;-3.266;2023-04-28T02:54:14;100543.78;;;15.15;54.12
23281;BME280;11809;56.390;-3.266;2023-04-28T02:56:42;100532.31;;;15.14;54.09
23281;BME280;11809;56.390;-3.266;2023-04-28T02:59:09;100528.94;;;15.12;54.23
23281;BME280;11809;56.390;-3.266;2023-04-28T03:01:36;100535.94;;;15.13;54.25
23281;BME280;11809;56.390;-3.266;2023-04-28T03:04:03;100539.44;;;15.14;54.28
23281;BME280;11809;56.390;-3.266;2023-04-28T03:06:30;100537.63;;;15.14;53.97
23281;BME280;11809;56.390;-3.266;2023-04-28T03:08:57;100534.97;;;15.14;54.13
23281;BME280;11809;56.390;-3.266;2023-04-28T03:11:24;100537.53;;;15.16;54.05
23281;BME280;11809;56.390;-3.266;2023-04-28T03:13:51;100541.13;;;15.15;54.23
23281;BME280;11809;56.390;-3.266;2023-04-28T03:16:18;100537.53;;;15.16;54.33
23281;BME280;11809;56.390;-3.266;2023-04-28T03:18:45;100538.41;;;15.16;54.11
23281;BME280;11809;56.390;-3.266;2023-04-28T03:21:12;100534.91;;;15.16;54.17
23281;BME280;11809;56.390;-3.266;2023-04-28T03:23:39;100532.31;;;15.14;54.14
23281;BME280;11809;56.390;-3.266;2023-04-28T03:26:07;100535.66;;;15.18;54.27
23281;BME280;11809;56.390;-3.266;2023-04-28T03:28:34;100533.09;;;15.16;54.23
23281;BME280;11809;56.390;-3.266;2023-04-28T03:31:00;100540.09;;;15.17;54.28
23281;BME280;11809;56.390;-3.266;2023-04-28T03:33:28;100535.66;;;15.18;54.36
23281;BME280;11809;56.390;-3.266;2023-04-28T03:35:55;100535.66;;;15.18;54.49
23281;BME280;11809;56.390;-3.266;2023-04-28T03:38:22;100540.84;;;15.19;54.03
23281;BME280;11809;56.390;-3.266;2023-04-28T03:40:49;100530.19;;;15.21;54.06
23281;BME280;11809;56.390;-3.266;2023-04-28T03:43:16;100541.44;;;15.25;54.01
23281;BME280;11809;56.390;-3.266;2023-04-28T03:45:43;100531.03;;;15.22;54.29
23281;BME280;11809;56.390;-3.266;2023-04-28T03:48:10;100530.06;;;15.23;54.10
23281;BME280;11809;56.390;-3.266;2023-04-28T03:50:37;100529.31;;;15.21;54.19
23281;BME280;11809;56.390;-3.266;2023-04-28T03:53:06;100522.97;;;15.23;54.14
23281;BME280;11809;56.390;-3.266;2023-04-28T03:55:34;100529.13;;;15.24;54.24
23281;BME280;11809;56.390;-3.266;2023-04-28T03:58:01;100530.00;;;15.24;54.04
23281;BME280;11809;56.390;-3.266;2023-04-28T04:00:28;100528.94;;;15.27;54.01
23281;BME280;11809;56.390;-3.266;2023-04-28T04:02:55;100528.94;;;15.27;54.31
23281;BME280;11809;56.390;-3.266;2023-04-28T04:05:22;100524.41;;;15.29;54.17
23281;BME280;11809;56.390;-3.266;2023-04-28T04:07:50;100531.59;;;15.27;54.27
23281;BME280;11809;56.390;-3.266;2023-04-28T04:10:17;100534.25;;;15.27;54.31
23281;BME280;11809;56.390;-3.266;2023-04-28T04:12:44;100535.09;;;15.27;54.41
23281;BME280;11809;56.390;-3.266;2023-04-28T04:15:11;100538.69;;;15.26;54.65
23281;BME280;11809;56.390;-3.266;2023-04-28T04:17:38;100531.50;;;15.28;54.33
23281;BME280;11809;56.390;-3.266;2023-04-28T04:20:06;100535.94;;;15.28;54.16
23281;BME280;11809;56.390;-3.266;2023-04-28T04:22:33;100528.78;;;15.30;54.45
23281;BME280;11809;56.390;-3.266;2023-04-28T04:25:00;100536.53;;;15.33;54.50
23281;BME280;11809;56.390;-3.266;2023-04-28T04:27:27;100534.63;;;15.35;54.45
23281;BME280;11809;56.390;-3.266;2023-04-28T04:29:54;100533.88;;;15.33;54.28
23281;BME280;11809;56.390;-3.266;2023-04-28T04:32:21;100537.06;;;15.24;54.08
23281;BME280;11809;56.390;-3.266;2023-04-28T04:34:48;100533.50;;;15.25;54.58
23281;BME280;11809;56.390;-3.266;2023-04-28T04:37:15;100537.63;;;15.29;54.58
23281;BME280;11809;56.390;-3.266;2023-04-28T04:39:43;100528.78;;;15.30;54.73
23281;BME280;11809;56.390;-3.266;2023-04-28T04:42:10;100533.19;;;15.29;55.06
23281;BME280;11809;56.390;-3.266;2023-04-28T04:44:50;100536.72;;;15.30;55.18
23281;BME280;11809;56.390;-3.266;2023-04-28T04:47:17;100542.38;;;15.38;55.15
23281;BME280;11809;56.390;-3.266;2023-04-28T04:49:44;100542.00;;;15.44;55.05
23281;BME280;11809;56.390;-3.266;2023-04-28T04:52:11;100540.16;;;15.46;54.42
23281;BME280;11809;56.390;-3.266;2023-04-28T04:54:38;100540.50;;;15.40;54.60
23281;BME280;11809;56.390;-3.266;2023-04-28T04:57:05;100536.91;;;15.41;54.63
23281;BME280;11809;56.390;-3.266;2023-04-28T04:59:33;100542.75;;;15.32;54.55
23281;BME280;11809;56.390;-3.266;2023-04-28T05:02:00;100552.59;;;15.30;54.96
23281;BME280;11809;56.390;-3.266;2023-04-28T05:04:27;100553.44;;;15.16;54.94
23281;BME280;11809;56.390;-3.266;2023-04-28T05:06:55;100547.81;;;15.06;55.09
23281;BME280;11809;56.390;-3.266;2023-04-28T05:09:22;100554.44;;;14.99;55.15
23281;BME280;11809;56.390;-3.266;2023-04-28T05:11:49;100551.22;;;14.94;55.20
23281;BME280;11809;56.390;-3.266;2023-04-28T05:14:16;100554.22;;;14.88;54.52
23281;BME280;11809;56.390;-3.266;2023-04-28T05:16:43;100549.91;;;15.01;55.21
23281;BME280;11809;56.390;-3.266;2023-04-28T05:19:11;100552.09;;;15.23;55.21
23281;BME280;11809;56.390;-3.266;2023-04-28T05:21:38;100554.66;;;15.39;55.08
23281;BME280;11809;56.390;-3.266;2023-04-28T05:24:05;100552.44;;;15.47;55.04
23281;BME280;11809;56.390;-3.266;2023-04-28T05:26:32;100548.47;;;15.54;55.13
23281;BME280;11809;56.390;-3.266;2023-04-28T05:28:59;100555.38;;;15.56;55.29
23281;BME280;11809;56.390;-3.266;2023-04-28T05:31:26;100552.91;;;15.53;55.42
23281;BME280;11809;56.390;-3.266;2023-04-28T05:33:53;100554.59;;;15.54;55.44
23281;BME280;11809;56.390;-3.266;2023-04-28T05:36:20;100556.50;;;15.52;55.30
23281;BME280;11809;56.390;-3.266;2023-04-28T05:38:48;100567.28;;;15.49;55.32
23281;BME280;11809;56.390;-3.266;2023-04-28T05:41:15;100569.19;;;15.47;55.56
23281;BME280;11809;56.390;-3.266;2023-04-28T05:43:42;100567.53;;;15.45;55.37
23281;BME280;11809;56.390;-3.266;2023-04-28T05:46:09;100564.13;;;15.43;55.23
23281;BME280;11809;56.390;-3.266;2023-04-28T05:48:55;100560.53;;;15.44;55.22
23281;BME280;11809;56.390;-3.266;2023-04-28T05:51:22;100572.09;;;15.43;55.19
23281;BME280;11809;56.390;-3.266;2023-04-28T05:53:49;100572.94;;;15.43;54.98
23281;BME280;11809;56.390;-3.266;2023-04-28T05:56:16;100577.38;;;15.43;55.15
23281;BME280;11809;56.390;-3.266;2023-04-28T05:58:43;100580.09;;;15.41;55.19
23281;BME280;11809;56.390;-3.266;2023-04-28T06:01:10;100573.00;;;15.42;54.86
23281;BME280;11809;56.390;-3.266;2023-04-28T06:03:38;100577.38;;;15.43;54.99
23281;BME280;11809;56.390;-3.266;2023-04-28T06:06:08;100566.78;;;15.43;54.96
23281;BME280;11809;56.390;-3.266;2023-04-28T06:08:37;100577.38;;;15.43;54.91
23281;BME280;11809;56.390;-3.266;2023-04-28T06:11:04;100575.47;;;15.45;55.09
23281;BME280;11809;56.390;-3.266;2023-04-28T06:13:32;100580.78;;;15.45;54.91
23281;BME280;11809;56.390;-3.266;2023-04-28T06:15:59;100587.81;;;15.46;54.88
23281;BME280;11809;56.390;-3.266;2023-04-28T06:18:28;100577.03;;;15.49;54.99
23281;BME280;11809;56.390;-3.266;2023-04-28T06:20:58;100578.06;;;15.46;54.77
23281;BME280;11809;56.390;-3.266;2023-04-28T06:23:25;100584.22;;;15.47;54.79
23281;BME280;11809;56.390;-3.266;2023-04-28T06:25:52;100587.63;;;15.49;54.68
23281;BME280;11809;56.390;-3.266;2023-04-28T06:28:20;100589.66;;;15.44;54.66
23281;BME280;11809;56.390;-3.266;2023-04-28T06:30:47;100587.28;;;15.39;55.15
23281;BME280;11809;56.390;-3.266;2023-04-28T06:33:15;100592.94;;;15.33;55.66
23281;BME280;11809;56.390;-3.266;2023-04-28T06:35:42;100594.19;;;15.28;55.80
23281;BME280;11809;56.390;-3.266;2023-04-28T06:38:09;100597.09;;;15.23;55.73
23281;BME280;11809;56.390;-3.266;2023-04-28T06:40:36;100591.34;;;15.16;55.80
23281;BME280;11809;56.390;-3.266;2023-04-28T06:43:04;100603.63;;;15.17;56.16
23281;BME280;11809;56.390;-3.266;2023-04-28T06:45:31;100605.50;;;15.15;56.22
23281;BME280;11809;56.390;-3.266;2023-04-28T06:47:58;100598.59;;;15.13;56.17
23281;BME280;11809;56.390;-3.266;2023-04-28T06:50:25;100607.41;;;15.13;55.90
23281;BME280;11809;56.390;-3.266;2023-04-28T06:52:53;100605.69;;;15.12;56.10
23281;BME280;11809;56.390;-3.266;2023-04-28T06:55:20;100619.78;;;15.13;56.14
23281;BME280;11809;56.390;-3.266;2023-04-28T06:57:47;100605.88;;;15.09;56.08
23281;BME280;11809;56.390;-3.266;2023-04-28T07:00:14;100616.28;;;15.12;56.03
23281;BME280;11809;56.390;-3.266;2023-04-28T07:02:41;100615.53;;;15.10;56.07
23281;BME280;11809;56.390;-3.266;2023-04-28T07:05:09;100622.59;;;15.10;56.14
23281;BME280;11809;56.390;-3.266;2023-04-28T07:07:36;100619.22;;;15.08;56.00
23281;BME280;11809;56.390;-3.266;2023-04-28T07:10:06;100621.75;;;15.09;56.23
23281;BME280;11809;56.390;-3.266;2023-04-28T07:12:34;100626.28;;;15.07;56.36
23281;BME280;11809;56.390;-3.266;2023-04-28T07:15:01;100624.56;;;15.06;56.45
23281;BME280;11809;56.390;-3.266;2023-04-28T07:17:28;100622.78;;;15.07;56.26
23281;BME280;11809;56.390;-3.266;2023-04-28T07:19:55;100626.41;;;15.06;56.19
23281;BME280;11809;56.390;-3.266;2023-04-28T07:22:22;100623.81;;;15.04;56.42
23281;BME280;11809;56.390;-3.266;2023-04-28T07:24:50;100634.41;;;15.04;56.54
23281;BME280;11809;56.390;-3.266;2023-04-28T07:27:17;100638.84;;;15.04;56.34
23281;BME280;11809;56.390;-3.266;2023-04-28T07:29:44;100638.00;;;15.03;56.45
23281;BME280;11809;56.390;-3.266;2023-04-28T07:32:11;100636.28;;;15.02;56.36
23281;BME280;11809;56.390;-3.266;2023-04-28T07:34:38;100638.19;;;15.00;56.49
23281;BME280;11809;56.390;-3.266;2023-04-28T07:37:09;100639.88;;;15.01;56.48
23281;BME280;11809;56.390;-3.266;2023-04-28T07:39:37;100642.63;;;15.00;56.46
23281;BME280;11809;56.390;-3.266;2023-04-28T07:42:06;100647.81;;;15.01;56.66
23281;BME280;11809;56.390;-3.266;2023-04-28T07:44:34;100645.16;;;15.01;56.39
23281;BME280;11809;56.390;-3.266;2023-04-28T07:47:01;100647.81;;;15.01;56.46
23281;BME280;11809;56.390;-3.266;2023-04-28T07:49:30;100648.84;;;14.99;56.61
23281;BME280;11809;56.390;-3.266;2023-04-28T07:51:57;100651.41;;;15.00;56.32
23281;BME280;11809;56.390;-3.266;2023-04-28T07:54:24;100655.00;;;14.99;56.42
23281;BME280;11809;56.390;-3.266;2023-04-28T07:56:51;100662.00;;;15.00;56.55
23281;BME280;11809;56.390;-3.266;2023-04-28T07:59:18;100659.53;;;14.97;56.54
23281;BME280;11809;56.390;-3.266;2023-04-28T08:01:46;100662.94;;;14.99;56.57
23281;BME280;11809;56.390;-3.266;2023-04-28T08:04:13;100665.47;;;15.01;56.46
23281;BME280;11809;56.390;-3.266;2023-04-28T08:06:41;100668.22;;;14.99;56.33
23281;BME280;11809;56.390;-3.266;2023-04-28T08:09:08;100661.03;;;15.01;56.47
23281;BME280;11809;56.390;-3.266;2023-04-28T08:11:36;100671.72;;;15.00;56.61
23281;BME280;11809;56.390;-3.266;2023-04-28T08:14:03;100674.22;;;15.03;56.38
23281;BME280;11809;56.390;-3.266;2023-04-28T08:16:30;100671.63;;;15.01;56.66
23281;BME280;11809;56.390;-3.266;2023-04-28T08:18:58;100670.69;;;15.02;56.65
23281;BME280;11809;56.390;-3.266;2023-04-28T08:21:26;100676.91;;;15.01;56.50
23281;BME280;11809;56.390;-3.266;2023-04-28T08:23:53;100677.78;;;15.02;56.58
23281;BME280;11809;56.390;-3.266;2023-04-28T08:26:20;100688.47;;;15.00;56.44
23281;BME280;11809;56.390;-3.266;2023-04-28T08:28:48;100680.53;;;15.00;56.68
23281;BME280;11809;56.390;-3.266;2023-04-28T08:31:15;100686.66;;;15.01;56.50
23281;BME280;11809;56.390;-3.266;2023-04-28T08:33:42;100691.94;;;15.01;56.81
23281;BME280;11809;56.390;-3.266;2023-04-28T08:36:11;100687.50;;;15.01;56.40
23281;BME280;11809;56.390;-3.266;2023-04-28T08:38:40;100690.16;;;15.01;56.56
23281;BME280;11809;56.390;-3.266;2023-04-28T08:41:08;100685.91;;;14.99;56.59
23281;BME280;11809;56.390;-3.266;2023-04-28T08:43:36;100690.25;;;15.00;56.60
23281;BME280;11809;56.390;-3.266;2023-04-28T08:46:05;100688.47;;;15.00;56.35
23281;BME280;11809;56.390;-3.266;2023-04-28T08:48:40;100686.00;;;14.97;56.49
23281;BME280;11809;56.390;-3.266;2023-04-28T08:51:12;100691.13;;;15.00;56.59
23281;BME280;11809;56.390;-3.266;2023-04-28T08:53:43;100694.53;;;15.02;56.59
23281;BME280;11809;56.390;-3.266;2023-04-28T08:56:32;100695.44;;;15.01;56.78
23281;BME280;11809;56.390;-3.266;2023-04-28T08:59:03;100692.81;;;15.01;56.66
23281;BME280;11809;56.390;-3.266;2023-04-28T09:01:31;100695.44;;;15.01;56.73
23281;BME280;11809;56.390;-3.266;2023-04-28T09:04:01;100700.75;;;15.01;56.59
23281;BME280;11809;56.390;-3.266;2023-04-28T09:06:34;100695.44;;;15.01;56.84
23281;BME280;11809;56.390;-3.266;2023-04-28T09:09:24;100706.81;;;15.03;56.70
23281;BME280;11809;56.390;-3.266;2023-04-28T09:11:58;100708.69;;;15.01;56.72
23281;BME280;11809;56.390;-3.266;2023-04-28T09:14:30;100707.75;;;15.02;56.77
23281;BME280;11809;56.390;-3.266;2023-04-28T09:16:58;100710.47;;;15.01;56.54
23281;BME280;11809;56.390;-3.266;2023-04-28T09:19:36;100699.13;;;14.99;56.56
23281;BME280;11809;56.390;-3.266;2023-04-28T09:22:05;100713.97;;;15.01;56.38
23281;BME280;11809;56.390;-3.266;2023-04-28T09:24:51;100716.72;;;15.00;56.83
23281;BME280;11809;56.390;-3.266;2023-04-28T09:27:25;100718.41;;;15.01;56.75
23281;BME280;11809;56.390;-3.266;2023-04-28T09:29:53;100714.94;;;15.00;56.74
23281;BME280;11809;56.390;-3.266;2023-04-28T09:32:21;100717.59;;;15.00;56.62
23281;BME280;11809;56.390;-3.266;2023-04-28T09:34:51;100724.56;;;15.01;56.71
23281;BME280;11809;56.390;-3.266;2023-04-28T09:37:21;100718.41;;;15.01;56.81
23281;BME280;11809;56.390;-3.266;2023-04-28T09:39:53;100725.41;;;15.02;56.77
23281;BME280;11809;56.390;-3.266;2023-04-28T09:45:00;100721.91;;;15.01;56.72
23281;BME280;11809;56.390;-3.266;2023-04-28T09:47:29;100726.28;;;15.02;56.85
23281;BME280;11809;56.390;-3.266;2023-04-28T09:50:00;100722.72;;;15.03;56.86
23281;BME280;11809;56.390;-3.266;2023-04-28T09:52:28;100730.66;;;15.03;56.96
23281;BME280;11809;56.390;-3.266;2023-04-28T09:54:55;100731.47;;;15.04;56.66
23281;BME280;11809;56.390;-3.266;2023-04-28T09:57:23;100734.97;;;15.04;56.67
23281;BME280;11809;56.390;-3.266;2023-04-28T09:59:51;100742.00;;;15.05;56.78
23281;BME280;11809;56.390;-3.266;2023-04-28T10:02:20;100735.09;;;15.03;56.79
23281;BME280;11809;56.390;-3.266;2023-04-28T10:05:07;100736.69;;;15.05;56.83
23281;BME280;11809;56.390;-3.266;2023-04-28T10:07:37;100746.31;;;15.06;56.79
23281;BME280;11809;56.390;-3.266;2023-04-28T10:10:06;100750.69;;;15.07;56.83
23281;BME280;11809;56.390;-3.266;2023-04-28T10:12:35;100749.75;;;15.08;56.80
23281;BME280;11809;56.390;-3.266;2023-04-28T10:15:08;100758.53;;;15.09;56.63
23281;BME280;11809;56.390;-3.266;2023-04-28T10:17:37;100756.75;;;15.09;56.57
23281;BME280;11809;56.390;-3.266;2023-04-28T10:20:05;100752.41;;;15.08;56.86
23281;BME280;11809;56.390;-3.266;2023-04-28T10:25:35;100752.41;;;15.08;56.88
23281;BME280;11809;56.390;-3.266;2023-04-28T10:28:07;100755.81;;;15.10;56.97
23281;BME280;11809;56.390;-3.266;2023-04-28T10:30:36;100754.09;;;15.09;56.87
23281;BME280;11809;56.390;-3.266;2023-04-28T10:35:45;100765.38;;;15.13;56.93
23281;BME280;11809;56.390;-3.266;2023-04-28T10:38:19;100756.50;;;15.14;56.92
23281;BME280;11809;56.390;-3.266;2023-04-28T10:40:51;100757.31;;;15.14;56.68
23281;BME280;11809;56.390;-3.266;2023-04-28T10:56:16;100770.97;;;15.23;56.70
23281;BME280;11809;56.390;-3.266;2023-04-28T10:58:48;100769.28;;;15.22;56.72
23281;BME280;11809;56.390;-3.266;2023-04-28T11:01:29;100775.25;;;15.25;56.77
23281;BME280;11809;56.390;-3.266;2023-04-28T11:04:15;100765.50;;;15.26;56.78
23281;BME280;11809;56.390;-3.266;2023-04-28T11:06:45;100770.81;;;15.26;56.91
23281;BME280;11809;56.390;-3.266;2023-04-28T11:14:29;100779.50;;;15.28;56.68
23281;BME280;11809;56.390;-3.266;2023-04-28T11:19:32;100779.44;;;15.29;56.98
23281;BME280;11809;56.390;-3.266;2023-04-28T11:22:02;100781.06;;;15.32;56.81
23281;BME280;11809;56.390;-3.266;2023-04-28T11:24:30;100783.53;;;15.35;56.87
23281;BME280;11809;56.390;-3.266;2023-04-28T11:26:58;100778.13;;;15.36;56.80
23281;BME280;11809;56.390;-3.266;2023-04-28T11:29:33;100781.53;;;15.38;56.64
23281;BME280;11809;56.390;-3.266;2023-04-28T11:32:07;100772.84;;;15.36;56.51
23281;BME280;11809;56.390;-3.266;2023-04-28T11:34:36;100784.13;;;15.40;56.71
23281;BME280;11809;56.390;-3.266;2023-04-28T11:37:03;100784.00;;;15.41;56.84
23281;BME280;11809;56.390;-3.266;2023-04-28T11:39:34;100783.09;;;15.42;56.88
23281;BME280;11809;56.390;-3.266;2023-04-28T11:42:08;100785.63;;;15.44;56.59
23281;BME280;11809;56.390;-3.266;2023-04-28T11:44:36;100778.50;;;15.46;56.65
23281;BME280;11809;56.390;-3.266;2023-04-28T11:47:04;100788.06;;;15.48;56.74
23281;BME280;11809;56.390;-3.266;2023-04-28T11:49:46;100777.38;;;15.50;56.94
23281;BME280;11809;56.390;-3.266;2023-04-28T11:52:13;100781.63;;;15.52;56.99
23281;BME280;11809;56.390;-3.266;2023-04-28T11:54:41;100786.88;;;15.54;56.80
23281;BME280;11809;56.390;-3.266;2023-04-28T11:57:18;100783.25;;;15.55;56.76
23281;BME280;11809;56.390;-3.266;2023-04-28T11:59:46;100789.25;;;15.58;56.61
23281;BME280;11809;56.390;-3.266;2023-04-28T12:02:15;100788.19;;;15.61;56.59
23281;BME280;11809;56.390;-3.266;2023-04-28T12:04:43;100788.88;;;15.64;56.92
23281;BME280;11809;56.390;-3.266;2023-04-28T12:07:13;100788.78;;;15.66;56.81
23281;BME280;11809;56.390;-3.266;2023-04-28T12:10:08;100787.84;;;15.67;56.84
23281;BME280;11809;56.390;-3.266;2023-04-28T12:12:35;100792.19;;;15.68;56.85
23281;BME280;11809;56.390;-3.266;2023-04-28T12:15:16;100793.97;;;15.67;56.84
23281;BME280;11809;56.390;-3.266;2023-04-28T12:17:46;100792.38;;;15.65;56.81
23281;BME280;11809;56.390;-3.266;2023-04-28T12:20:33;100788.09;;;15.62;56.96
23281;BME280;11809;56.390;-3.266;2023-04-28T12:23:01;100789.91;;;15.62;56.89
23281;BME280;11809;56.390;-3.266;2023-04-28T12:25:28;100795.22;;;15.62;56.96
23281;BME280;11809;56.390;-3.266;2023-04-28T12:27:59;100797.88;;;15.62;56.87
23281;BME280;11809;56.390;-3.266;2023-04-28T12:30:33;100800.53;;;15.62;56.73
23281;BME280;11809;56.390;-3.266;2023-04-28T12:33:00;100800.53;;;15.62;56.85
23281;BME280;11809;56.390;-3.266;2023-04-28T12:35:28;100802.19;;;15.63;56.65
23281;BME280;11809;56.390;-3.266;2023-04-28T12:37:56;100811.13;;;15.62;56.54
23281;BME280;11809;56.390;-3.266;2023-04-28T12:40:24;100806.75;;;15.61;56.66
23281;BME280;11809;56.390;-3.266;2023-04-28T12:42:52;100811.13;;;15.62;56.71
23281;BME280;11809;56.390;-3.266;2023-04-28T12:45:19;100812.91;;;15.61;56.67
23281;BME280;11809;56.390;-3.266;2023-04-28T12:47:46;100802.19;;;15.63;56.55
23281;BME280;11809;56.390;-3.266;2023-04-28T12:50:14;100812.81;;;15.63;56.64
23281;BME280;11809;56.390;-3.266;2023-04-28T12:52:41;100803.16;;;15.62;56.57
23281;BME280;11809;56.390;-3.266;2023-04-28T12:55:08;100804.97;;;15.61;56.68
23281;BME280;11809;56.390;-3.266;2023-04-28T12:57:35;100808.53;;;15.60;56.79
23281;BME280;11809;56.390;-3.266;2023-04-28T13:00:05;100806.63;;;15.62;56.44
23281;BME280;11809;56.390;-3.266;2023-04-28T13:02:33;100811.00;;;15.63;56.64
23281;BME280;11809;56.390;-3.266;2023-04-28T13:05:00;100811.94;;;15.62;56.68
23281;BME280;11809;56.390;-3.266;2023-04-28T13:07:29;100816.41;;;15.62;56.70
23281;BME280;11809;56.390;-3.266;2023-04-28T13:09:56;100817.25;;;15.62;56.50
23281;BME280;11809;56.390;-3.266;2023-04-28T13:12:25;100819.06;;;15.62;56.70
23281;BME280;11809;56.390;-3.266;2023-04-28T13:14:52;100817.34;;;15.61;56.82
23281;BME280;11809;56.390;-3.266;2023-04-28T13:17:19;100825.28;;;15.61;56.77